Aérodrome :
LOGIN :

S'inscrire | Disclaimer

   EN    FR    IT 

 










Légende :    VFR   VFR Marginal   IFR   IFR Intensif   IFR Très Intensif
Visi : 
Plafond : 
>= 8 km
>= 3000ft
5 à 8 km
1000 à 3000 ft
1500m à 5 km
500 à 1000 ft
800 à 1500m
200 à 500 ft
< 800m
< 200 ft
Symboles :   Orages  Brouillard  Fortes neiges  Fortes précipitations  Vent > 20 kt
SIGMETs :   Divers  Orages  Givrage  Turbulence  Onde Orograph.  Cendres Volcan.







- Altitude de l'aérodrome : 1058 ft
- Code IATA : SCN


EDDR - Saarbrücken

DERNIER METAR :
  • 221020Z 30005KT 230V030 9999 BKN018 14/09 Q1020 NOSIG

METARs EXPIRÉS :
  • 220950Z VRB02KT 9999 BKN018 13/09 Q1020 NOSIG
  • 220920Z VRB03KT 9999 FEW010 BKN017 12/09 Q1020 NOSIG
  • 220850Z VRB03KT 9999 FEW008 BKN015 12/07 Q1020 NOSIG
  • 220820Z 30004KT 250V010 9999 FEW008 BKN013 11/08 Q1019 BECMG BKN015
  • 220750Z 33004KT 270V020 9999 FEW006 BKN011 10/08 Q1019 BECMG BKN015

TAF AMD TAF EDDR
Valide du 22 à 08h jusqu'au 23 à 06h UTC


220809Z 2208/2306 28005KT 9999 FEW014
TEMPO 2208/2210 BKN010
BECMG 2218/2221 VRB02KT
Pas de NOTAMs connus pour ce terrain.



MET'MAP, la Météo Aéronautique d'un coup d'oeil ! - Copyright ORBIFLY Décembre 2007 - Disclaimer

ORBIFLY MET'MAP TEAM :

Programmation & Développement : Alexandra Zaïnal
Conception & Développement : Baudouin d'Aumeries
Co-Programmation & Développement : Marc-Olivier Méhu
Soutien technique & logistique : Manuel Goepfert

Contact : metmap@orbifly.com




SOURCES & CREDITS :

   NOAA